Heron Bay, Alabama
Current Conditions -  °F | °C
As of 12:53 AM on Monday 24 Nov 2014 (Local Time) from KBFM Reporting Station
Overcast Overcast  
Wind Chill: 71°   Ceiling: 900
Heat Index: 71°   Visibility: 10mi
Dew Point: 69°   Wind: 5mph
Humidity: 93%   Direction: NA
Pressure: 29.78"   Gusts: NA
Location:  30.4032°N, 88.1801°W
Report Text: KBFM 240653Z AUTO VRB04KT 10SM OVC009 22/21 A2978 RMK AO2 CIG 007V011 SLP083 T02170206
Loading
Personal Weather Stations






























Interactive Weather Map New forecast layout! Learn more

10-Day Weather Forecast

Advertisements
Track Severe Weather on mobile